Time;durP1;ratioP1;P1;durP2;ratioP2;P2;SDS_P1;SDS_P2;PMS_P1;PMS_P2;Temp;Humidity;BMP_temperature;BMP_pressure;BME280_temperature;BME280_humidity;BME280_pressure;Samples;Min_cycle;Max_cycle;Signal;HPM_P1;HPM_P2
2024/01/15 00:01:21;;;;;;;36.53;18.27;;;2.60;99.90;;;;;;5092270;28;20923;-82
2024/01/15 00:03:47;;;;;;;38.03;18.43;;;2.50;99.90;;;;;;5093695;28;20247;-83
2024/01/15 00:06:12;;;;;;;35.37;18.90;;;2.60;99.90;;;;;;5093546;28;20167;-83
2024/01/15 00:08:38;;;;;;;33.83;17.77;;;2.70;99.90;;;;;;5093662;28;20175;-83
2024/01/15 00:11:03;;;;;;;35.70;17.30;;;2.70;99.90;;;;;;5093602;28;20270;-82
2024/01/15 00:13:29;;;;;;;37.13;18.10;;;2.70;99.90;;;;;;5093981;28;20203;-82
2024/01/15 00:15:55;;;;;;;32.20;17.30;;;2.70;99.90;;;;;;5093330;28;20168;-82
2024/01/15 00:18:20;;;;;;;30.50;15.77;;;2.70;99.90;;;;;;5093722;28;20183;-83
2024/01/15 00:20:46;;;;;;;31.40;17.00;;;2.70;99.90;;;;;;5093786;28;20168;-82
2024/01/15 00:23:11;;;;;;;33.00;16.50;;;2.60;99.90;;;;;;5093456;28;20164;-82
2024/01/15 00:25:37;;;;;;;29.63;16.00;;;2.60;99.90;;;;;;5093427;28;20601;-83
2024/01/15 00:28:02;;;;;;;29.70;16.13;;;2.70;99.90;;;;;;5093387;28;20237;-82
2024/01/15 00:30:28;;;;;;;28.53;16.07;;;2.70;99.90;;;;;;5092755;28;20293;-82
2024/01/15 00:32:54;;;;;;;28.43;15.60;;;2.70;99.90;;;;;;5091961;28;20666;-83
2024/01/15 00:35:19;;;;;;;31.43;15.37;;;2.70;99.90;;;;;;5093156;28;20639;-84
2024/01/15 00:37:45;;;;;;;26.37;14.40;;;2.70;99.90;;;;;;5092241;28;20599;-83
2024/01/15 00:40:10;;;;;;;23.60;14.07;;;2.70;99.90;;;;;;5093219;28;20176;-82
2024/01/15 00:42:36;;;;;;;24.10;14.20;;;2.80;99.90;;;;;;5093110;28;20160;-82
2024/01/15 00:45:02;;;;;;;25.93;13.80;;;2.80;99.90;;;;;;5091546;28;20164;-83
2024/01/15 00:47:27;;;;;;;29.17;13.63;;;2.90;99.90;;;;;;5093261;28;20191;-82
2024/01/15 00:49:53;;;;;;;26.27;13.50;;;2.90;99.90;;;;;;5093685;28;20175;-83
2024/01/15 00:52:18;;;;;;;25.30;12.90;;;2.90;99.90;;;;;;5096876;28;20167;-82
2024/01/15 00:54:44;;;;;;;21.83;12.47;;;2.90;99.90;;;;;;5096919;28;20172;-81
2024/01/15 00:57:09;;;;;;;17.73;10.63;;;2.90;99.90;;;;;;5097196;28;20186;-82
2024/01/15 00:59:35;;;;;;;22.27;12.37;;;3.00;99.90;;;;;;5096477;28;20203;-83
2024/01/15 01:02:01;;;;;;;19.90;11.50;;;2.90;99.90;;;;;;5096582;28;20199;-82
2024/01/15 01:04:27;;;;;;;17.27;10.90;;;3.00;99.90;;;;;;5095998;28;20168;-82
2024/01/15 01:06:53;;;;;;;18.50;11.17;;;3.10;99.90;;;;;;5096760;28;20639;-82
2024/01/15 01:09:18;;;;;;;19.93;11.23;;;3.30;99.90;;;;;;5097043;28;20627;-81
2024/01/15 01:11:44;;;;;;;16.43;9.50;;;3.30;99.90;;;;;;5096583;28;20171;-82
2024/01/15 01:14:09;;;;;;;15.70;9.57;;;3.20;99.90;;;;;;5096360;28;20235;-81
2024/01/15 01:16:38;;;;;;;16.47;9.10;;;3.20;99.90;;;;;;5096527;28;20221;-81
2024/01/15 01:19:06;;;;;;;13.37;9.37;;;3.20;99.90;;;;;;5095797;28;20535;-82
2024/01/15 01:21:32;;;;;;;13.70;8.53;;;3.20;99.90;;;;;;5096600;28;20164;-82
2024/01/15 01:23:57;;;;;;;13.70;8.07;;;3.20;99.90;;;;;;5096511;28;20169;-82
2024/01/15 01:26:23;;;;;;;12.30;7.70;;;3.20;99.90;;;;;;5096479;28;20176;-81
2024/01/15 01:28:48;;;;;;;10.60;6.67;;;3.10;99.90;;;;;;5096021;28;20211;-82
2024/01/15 01:31:16;;;;;;;10.73;6.80;;;3.10;99.90;;;;;;5096245;28;20176;-81
2024/01/15 01:33:42;;;;;;;6.43;5.73;;;3.20;99.90;;;;;;5096360;28;20662;-82
2024/01/15 01:36:09;;;;;;;6.00;5.40;;;3.30;99.90;;;;;;5096329;28;20305;-82
2024/01/15 01:38:35;;;;;;;8.17;6.30;;;3.30;99.90;;;;;;5096293;28;20179;-82
2024/01/15 01:41:01;;;;;;;8.43;5.67;;;3.40;99.90;;;;;;5097622;28;20163;-81
2024/01/15 01:43:26;;;;;;;6.97;5.70;;;3.40;99.90;;;;;;5097131;28;20181;-82
2024/01/15 01:45:54;;;;;;;8.70;6.00;;;3.50;99.90;;;;;;5096106;28;20172;-81
2024/01/15 01:48:20;;;;;;;9.67;5.97;;;3.60;99.90;;;;;;5096142;28;20175;-81
2024/01/15 01:50:45;;;;;;;7.33;5.73;;;3.50;99.90;;;;;;5096193;28;20170;-81
2024/01/15 01:53:11;;;;;;;8.63;5.60;;;3.40;99.90;;;;;;5096087;28;20204;-81
2024/01/15 01:55:38;;;;;;;7.33;5.77;;;3.50;99.90;;;;;;5095876;28;20217;-82
2024/01/15 01:58:04;;;;;;;8.27;5.30;;;3.50;99.90;;;;;;5094473;28;20196;-80
2024/01/15 02:00:32;;;;;;;8.03;5.17;;;3.50;99.90;;;;;;5095837;28;20230;-82
2024/01/15 02:02:58;;;;;;;8.70;5.27;;;3.50;99.90;;;;;;5094479;28;20639;-81
2024/01/15 02:05:23;;;;;;;5.50;5.00;;;3.50;99.90;;;;;;5094522;28;20207;-82
2024/01/15 02:07:49;;;;;;;5.57;4.90;;;3.50;99.90;;;;;;5095791;28;20194;-81
2024/01/15 02:10:14;;;;;;;5.30;4.80;;;3.50;99.90;;;;;;5095733;28;20168;-81
2024/01/15 02:12:40;;;;;;;5.53;4.87;;;3.50;99.90;;;;;;5095238;28;20191;-81
2024/01/15 02:15:06;;;;;;;5.17;4.50;;;3.60;99.90;;;;;;5095734;28;20643;-81
2024/01/15 02:17:31;;;;;;;5.40;4.40;;;3.50;99.90;;;;;;5095479;28;20204;-81
2024/01/15 02:19:57;;;;;;;4.93;4.50;;;3.50;99.90;;;;;;5094084;28;20172;-80
2024/01/15 02:22:22;;;;;;;6.57;4.27;;;3.60;99.90;;;;;;5094105;28;20160;-81
2024/01/15 02:24:48;;;;;;;6.43;4.50;;;3.70;99.90;;;;;;5095406;28;20569;-81
2024/01/15 02:27:14;;;;;;;6.17;4.63;;;3.70;99.90;;;;;;5094895;28;20633;-81
2024/01/15 02:29:40;;;;;;;5.07;4.57;;;3.60;99.90;;;;;;5095030;28;20223;-81
2024/01/15 02:32:06;;;;;;;5.90;4.40;;;3.70;99.90;;;;;;5095172;28;20176;-81
2024/01/15 02:34:32;;;;;;;8.87;4.23;;;3.60;99.90;;;;;;5095099;28;20205;-83
2024/01/15 02:36:58;;;;;;;4.90;3.70;;;3.50;99.90;;;;;;5093806;28;20164;-82
2024/01/15 02:39:24;;;;;;;8.40;4.10;;;3.50;99.90;;;;;;5095144;28;20178;-82
2024/01/15 02:41:49;;;;;;;6.87;3.60;;;3.50;99.90;;;;;;5094715;28;20201;-82
2024/01/15 02:44:15;;;;;;;4.10;3.73;;;3.40;99.90;;;;;;5094867;28;20186;-82
2024/01/15 02:46:40;;;;;;;7.87;4.10;;;3.50;99.90;;;;;;5095345;28;20172;-81
2024/01/15 02:49:06;;;;;;;6.63;4.23;;;3.50;99.90;;;;;;5093838;28;20271;-82
2024/01/15 02:51:31;;;;;;;6.90;4.67;;;3.40;99.90;;;;;;5094750;28;20635;-81
2024/01/15 02:53:57;;;;;;;5.67;5.00;;;3.30;99.90;;;;;;5094818;28;20229;-81
2024/01/15 02:56:22;;;;;;;6.50;5.10;;;3.20;99.90;;;;;;5093048;28;20254;-82
2024/01/15 02:58:48;;;;;;;7.50;5.67;;;3.10;99.90;;;;;;5093532;28;20167;-82
2024/01/15 03:01:14;;;;;;;10.00;6.07;;;3.10;99.90;;;;;;5094658;28;20550;-82
2024/01/15 03:03:40;;;;;;;10.20;6.50;;;3.00;99.90;;;;;;5094812;28;20266;-81
2024/01/15 03:06:06;;;;;;;9.90;7.23;;;2.90;99.90;;;;;;5094551;28;20171;-80
2024/01/15 03:08:31;;;;;;;17.53;8.13;;;2.90;99.90;;;;;;5094638;28;20175;-80
2024/01/15 03:10:57;;;;;;;13.70;7.97;;;3.00;99.90;;;;;;5095627;28;20167;-81
2024/01/15 03:13:23;;;;;;;12.30;8.27;;;2.90;99.90;;;;;;5094333;28;20199;-82
2024/01/15 03:15:48;;;;;;;14.73;9.67;;;2.90;99.90;;;;;;5094694;28;20170;-81
2024/01/15 03:18:14;;;;;;;20.53;9.60;;;3.00;99.90;;;;;;5094584;28;20257;-80
2024/01/15 03:20:39;;;;;;;15.93;10.20;;;3.00;99.90;;;;;;5094412;28;20173;-82
2024/01/15 03:23:05;;;;;;;18.17;10.50;;;3.00;99.90;;;;;;5094623;28;20616;-83
2024/01/15 03:25:30;;;;;;;19.03;10.83;;;2.90;99.90;;;;;;5092466;28;20171;-81
2024/01/15 03:27:56;;;;;;;14.77;10.70;;;2.90;99.90;;;;;;5094291;28;20258;-82
2024/01/15 03:30:21;;;;;;;18.47;11.33;;;2.90;99.90;;;;;;5093849;28;20226;-81
2024/01/15 03:32:47;;;;;;;18.30;11.87;;;2.80;99.90;;;;;;5094149;28;20237;-82
2024/01/15 03:35:13;;;;;;;16.00;11.30;;;2.90;99.90;;;;;;5094114;28;20176;-81
2024/01/15 03:37:38;;;;;;;19.30;10.83;;;2.90;99.90;;;;;;5094142;28;20164;-81
2024/01/15 03:40:04;;;;;;;19.70;11.97;;;2.80;99.90;;;;;;5093766;28;20628;-80
2024/01/15 03:42:30;;;;;;;19.83;11.97;;;2.80;99.90;;;;;;5092352;28;20172;-81
2024/01/15 03:44:55;;;;;;;18.97;11.87;;;2.90;99.90;;;;;;5093801;28;20708;-80
2024/01/15 03:47:21;;;;;;;21.67;12.13;;;2.90;99.90;;;;;;5093958;28;20749;-81
2024/01/15 03:49:46;;;;;;;21.13;13.10;;;2.90;99.90;;;;;;5094049;28;20215;-81
2024/01/15 03:52:12;;;;;;;21.17;12.97;;;2.90;99.90;;;;;;5093777;28;20627;-81
2024/01/15 03:54:38;;;;;;;24.43;13.43;;;2.90;99.90;;;;;;5093294;28;20215;-82
2024/01/15 03:57:04;;;;;;;25.03;13.80;;;2.90;99.90;;;;;;5092472;28;20225;-80
2024/01/15 03:59:30;;;;;;;23.00;13.97;;;2.90;99.90;;;;;;5093871;28;20179;-82
2024/01/15 04:01:55;;;;;;;23.53;13.73;;;2.80;99.90;;;;;;5093728;28;20184;-82
2024/01/15 04:04:21;;;;;;;22.97;14.20;;;2.80;99.90;;;;;;5093690;28;20172;-82
2024/01/15 04:06:46;;;;;;;23.83;14.40;;;2.80;99.90;;;;;;5092286;28;20175;-81
2024/01/15 04:09:13;;;;;;;24.33;14.07;;;2.80;99.90;;;;;;5093374;28;20168;-82
2024/01/15 04:11:39;;;;;;;26.07;14.87;;;2.80;99.90;;;;;;5093450;28;20187;-81
2024/01/15 04:14:05;;;;;;;25.17;15.10;;;2.80;99.90;;;;;;5092395;28;20210;-82
2024/01/15 04:16:31;;;;;;;30.80;15.00;;;2.80;99.90;;;;;;5093304;28;20338;-81
2024/01/15 04:18:56;;;;;;;25.60;15.27;;;2.80;99.90;;;;;;5093280;28;20175;-82
2024/01/15 04:21:22;;;;;;;25.07;15.63;;;2.80;99.90;;;;;;5093266;28;20163;-82
2024/01/15 04:23:47;;;;;;;26.30;15.07;;;2.90;99.90;;;;;;5093152;28;20172;-80
2024/01/15 04:26:13;;;;;;;24.50;14.87;;;2.90;99.90;;;;;;5097558;28;20213;-82
2024/01/15 04:28:38;;;;;;;27.87;15.00;;;2.90;99.90;;;;;;5097604;28;20680;-81
2024/01/15 04:31:04;;;;;;;24.13;13.97;;;3.10;99.90;;;;;;5098708;28;20171;-81
2024/01/15 04:33:29;;;;;;;23.27;14.33;;;3.00;99.90;;;;;;5096826;28;20226;-81
2024/01/15 04:35:55;;;;;;;25.03;15.00;;;3.00;99.90;;;;;;5097409;28;20172;-81
2024/01/15 04:38:20;;;;;;;22.93;14.33;;;3.10;99.90;;;;;;5097240;28;20236;-82
2024/01/15 04:40:46;;;;;;;26.03;13.60;;;3.10;99.90;;;;;;5097663;28;20568;-81
2024/01/15 04:43:12;;;;;;;21.83;13.03;;;3.20;99.90;;;;;;5096322;28;20175;-82
2024/01/15 04:45:37;;;;;;;23.00;13.20;;;3.30;99.90;;;;;;5097381;28;20179;-81
2024/01/15 04:48:03;;;;;;;21.13;13.00;;;3.30;99.90;;;;;;5095996;28;20269;-81
2024/01/15 04:50:29;;;;;;;21.60;12.40;;;3.30;99.90;;;;;;5097030;28;20643;-82
2024/01/15 04:52:54;;;;;;;21.83;11.90;;;3.40;99.90;;;;;;5096538;28;20211;-81
2024/01/15 04:55:20;;;;;;;21.00;11.90;;;3.40;99.90;;;;;;5096604;28;20247;-81
2024/01/15 04:57:45;;;;;;;17.80;10.10;;;3.50;99.90;;;;;;5096856;28;20176;-79
2024/01/15 05:00:13;;;;;;;16.17;10.77;;;3.50;99.90;;;;;;5096762;28;20176;-81
2024/01/15 05:02:38;;;;;;;15.73;9.93;;;3.60;99.90;;;;;;5095399;28;20525;-81
2024/01/15 05:05:04;;;;;;;15.27;9.80;;;3.60;99.90;;;;;;5096691;28;20205;-81
2024/01/15 05:07:29;;;;;;;12.10;7.40;;;3.60;99.90;;;;;;5096654;28;20176;-81
2024/01/15 05:09:55;;;;;;;9.70;6.10;;;3.50;99.90;;;;;;5096008;28;20172;-81
2024/01/15 05:12:20;;;;;;;8.00;5.60;;;3.40;99.90;;;;;;5095359;28;20222;-82
2024/01/15 05:14:46;;;;;;;7.77;4.60;;;3.30;99.90;;;;;;5095322;28;20693;-81
2024/01/15 05:17:12;;;;;;;5.47;4.03;;;3.40;99.90;;;;;;5096247;28;20593;-82
2024/01/15 05:19:37;;;;;;;9.43;4.53;;;3.20;99.90;;;;;;5096526;28;20168;-80
2024/01/15 05:22:03;;;;;;;4.63;3.30;;;3.20;99.90;;;;;;5095688;28;20235;-81
2024/01/15 05:24:28;;;;;;;5.97;3.30;;;3.20;99.90;;;;;;5096109;28;20195;-81
2024/01/15 05:26:54;;;;;;;3.23;3.03;;;3.20;99.90;;;;;;5096266;28;20203;-82
2024/01/15 05:29:19;;;;;;;5.80;3.27;;;3.20;99.90;;;;;;5095859;28;20269;-80
2024/01/15 05:31:45;;;;;;;2.87;2.67;;;3.20;99.90;;;;;;5095138;28;20634;-82
2024/01/15 05:34:10;;;;;;;4.00;2.73;;;3.10;99.90;;;;;;5095764;28;20758;-82
2024/01/15 05:36:36;;;;;;;4.40;2.60;;;3.10;99.90;;;;;;5094671;28;20624;-81
2024/01/15 05:39:02;;;;;;;5.07;2.80;;;3.00;99.90;;;;;;5095630;28;20172;-81
2024/01/15 05:41:28;;;;;;;6.23;2.67;;;3.00;99.90;;;;;;5095874;28;20160;-80
2024/01/15 05:43:54;;;;;;;3.47;3.00;;;3.00;99.90;;;;;;5094865;28;20179;-80
2024/01/15 05:46:19;;;;;;;5.27;2.70;;;3.10;99.90;;;;;;5093849;28;20248;-82
2024/01/15 05:48:45;;;;;;;5.20;2.30;;;3.00;99.90;;;;;;5095236;28;20171;-81
2024/01/15 05:51:11;;;;;;;6.00;2.80;;;2.90;99.90;;;;;;5095376;28;20170;-82
2024/01/15 05:53:38;;;;;;;3.37;2.90;;;2.90;99.90;;;;;;5094714;28;20676;-80
2024/01/15 05:56:04;;;;;;;8.53;3.20;;;2.90;99.90;;;;;;5095327;28;20176;-81
2024/01/15 05:58:29;;;;;;;3.47;2.50;;;2.90;99.90;;;;;;5095065;28;20262;-82
2024/01/15 06:00:55;;;;;;;3.83;2.27;;;2.90;99.90;;;;;;5094720;28;20243;-81
2024/01/15 06:03:20;;;;;;;9.90;2.37;;;2.90;99.90;;;;;;5094712;28;20253;-82
2024/01/15 06:05:46;;;;;;;2.67;2.23;;;2.90;99.90;;;;;;5094837;28;20168;-80
2024/01/15 06:08:11;;;;;;;7.73;1.70;;;2.90;99.90;;;;;;5096998;28;20191;-82
2024/01/15 06:10:37;;;;;;;5.37;2.00;;;2.90;99.90;;;;;;5094497;28;20595;-81
2024/01/15 06:13:02;;;;;;;3.60;1.90;;;2.90;99.90;;;;;;5094203;28;20631;-81
2024/01/15 06:15:28;;;;;;;4.43;2.23;;;2.80;99.90;;;;;;5094814;28;20679;-80
2024/01/15 06:17:53;;;;;;;2.60;1.80;;;2.80;99.90;;;;;;5094921;28;20615;-83
2024/01/15 06:20:19;;;;;;;2.87;1.50;;;2.70;99.90;;;;;;5094805;28;20213;-83
2024/01/15 06:22:45;;;;;;;4.23;1.60;;;2.70;99.90;;;;;;5095099;28;20178;-83
2024/01/15 06:25:10;;;;;;;2.23;1.67;;;2.70;99.90;;;;;;5094870;28;20247;-83
2024/01/15 06:27:36;;;;;;;3.23;1.70;;;2.70;99.90;;;;;;5094889;28;20180;-84
2024/01/15 06:30:02;;;;;;;6.07;2.00;;;2.70;99.90;;;;;;5094481;28;20223;-84
2024/01/15 06:32:27;;;;;;;4.63;2.13;;;2.70;99.90;;;;;;5094282;28;20168;-85
2024/01/15 06:34:53;;;;;;;4.43;2.20;;;2.60;99.90;;;;;;5093423;28;20658;-84
2024/01/15 06:37:20;;;;;;;5.73;2.37;;;2.50;99.90;;;;;;5094196;28;20255;-83
2024/01/15 06:39:45;;;;;;;3.57;2.10;;;2.40;99.90;;;;;;5093105;28;20603;-83
2024/01/15 06:42:11;;;;;;;8.37;2.60;;;2.40;99.90;;;;;;5095097;28;20172;-84
2024/01/15 06:44:37;;;;;;;3.07;2.20;;;2.40;99.90;;;;;;5093054;28;20276;-83
2024/01/15 06:47:02;;;;;;;8.43;2.90;;;2.30;99.90;;;;;;5093589;28;20191;-83
2024/01/15 06:49:29;;;;;;;7.17;2.87;;;2.40;99.90;;;;;;5094489;28;20221;-83
2024/01/15 06:51:55;;;;;;;4.63;2.70;;;2.30;99.90;;;;;;5093066;28;20263;-82
2024/01/15 06:54:21;;;;;;;6.77;3.00;;;2.30;99.90;;;;;;5092719;28;20222;-84
2024/01/15 06:56:46;;;;;;;3.23;2.90;;;2.20;99.90;;;;;;5094267;28;20216;-83
2024/01/15 06:59:12;;;;;;;4.97;3.27;;;2.20;99.90;;;;;;5092488;28;20194;-84
2024/01/15 07:01:37;;;;;;;5.87;3.87;;;2.30;99.90;;;;;;5093199;28;20202;-83
2024/01/15 07:04:03;;;;;;;6.73;3.50;;;2.30;99.90;;;;;;5093370;28;20235;-83
2024/01/15 07:06:30;;;;;;;9.83;3.70;;;2.30;99.90;;;;;;5093542;28;20164;-83
2024/01/15 07:08:56;;;;;;;7.80;3.10;;;2.20;99.90;;;;;;5093961;28;20643;-83
2024/01/15 07:11:21;;;;;;;4.97;3.20;;;2.20;99.90;;;;;;5099317;28;20168;-83
2024/01/15 07:13:47;;;;;;;9.70;3.43;;;2.10;99.90;;;;;;5097872;28;20248;-84
2024/01/15 07:16:12;;;;;;;7.93;3.23;;;2.00;99.90;;;;;;5097341;28;20171;-83
2024/01/15 07:18:38;;;;;;;10.47;3.70;;;2.00;99.90;;;;;;5100112;28;20235;-82
2024/01/15 07:21:04;;;;;;;5.67;3.00;;;2.00;99.90;;;;;;5094054;28;20229;-83
2024/01/15 07:23:31;;;;;;;9.73;4.03;;;2.00;99.90;;;;;;5095128;28;20251;-82
2024/01/15 07:25:57;;;;;;;7.73;5.70;;;2.00;99.90;;;;;;5094267;28;20266;-83
2024/01/15 07:28:23;;;;;;;6.93;3.80;;;2.00;99.90;;;;;;5094576;28;20211;-83
2024/01/15 07:30:48;;;;;;;5.57;3.40;;;2.00;99.90;;;;;;5093990;28;20250;-84
2024/01/15 07:33:14;;;;;;;6.97;3.57;;;2.00;99.90;;;;;;5093197;28;20202;-84
2024/01/15 07:35:41;;;;;;;14.90;4.10;;;2.00;99.90;;;;;;5094545;28;20284;-83
2024/01/15 07:38:06;;;;;;;10.47;3.83;;;2.00;99.90;;;;;;5097448;28;20202;-83
2024/01/15 07:40:32;;;;;;;9.60;3.80;;;2.00;99.90;;;;;;5094735;28;20218;-84
2024/01/15 07:42:58;;;;;;;6.97;4.10;;;2.00;99.90;;;;;;5094095;28;20168;-82
2024/01/15 07:45:23;;;;;;;10.73;4.03;;;2.00;99.90;;;;;;5093599;28;20202;-84
2024/01/15 07:47:49;;;;;;;7.07;4.27;;;2.00;99.90;;;;;;5094030;28;20168;-84
2024/01/15 07:50:14;;;;;;;11.47;5.90;;;2.00;99.90;;;;;;5093743;28;20604;-84
2024/01/15 07:52:43;;;;;;;8.60;5.60;;;2.00;99.90;;;;;;5093510;28;20203;-84
2024/01/15 07:55:09;;;;;;;11.03;5.10;;;2.10;99.90;;;;;;5092875;28;20168;-84
2024/01/15 07:57:35;;;;;;;28.10;7.57;;;2.20;99.90;;;;;;5093591;28;20167;-84
2024/01/15 08:00:04;;;;;;;13.87;5.90;;;2.20;99.90;;;;;;5093071;28;20172;-83
2024/01/15 08:02:29;;;;;;;7.43;5.10;;;2.30;99.90;;;;;;5093188;28;20186;-83
2024/01/15 08:04:55;;;;;;;9.67;5.57;;;2.40;99.90;;;;;;5092198;28;20156;-83
2024/01/15 08:07:20;;;;;;;7.67;5.00;;;2.50;99.90;;;;;;5092688;28;20221;-82
2024/01/15 08:09:47;;;;;;;7.03;4.57;;;2.50;99.90;;;;;;5093046;28;20274;-82
2024/01/15 08:12:13;;;;;;;10.17;4.90;;;2.60;99.90;;;;;;5092670;28;20164;-83
2024/01/15 08:14:38;;;;;;;12.73;4.90;;;2.60;99.90;;;;;;5092410;28;20316;-83
2024/01/15 08:17:04;;;;;;;11.97;4.40;;;2.80;99.90;;;;;;5091096;28;20168;-84
2024/01/15 08:19:30;;;;;;;7.87;3.70;;;2.90;99.90;;;;;;5090518;28;20183;-81
2024/01/15 08:21:55;;;;;;;3.50;3.13;;;2.90;99.90;;;;;;5092959;28;20183;-82
2024/01/15 08:24:21;;;;;;;13.67;4.10;;;3.00;99.90;;;;;;5091583;28;20190;-83
2024/01/15 08:26:46;;;;;;;5.87;2.93;;;3.20;99.90;;;;;;5093036;28;20164;-83
2024/01/15 08:29:12;;;;;;;5.33;3.40;;;3.30;99.90;;;;;;5091789;28;20214;-82
2024/01/15 08:31:38;;;;;;;11.20;3.43;;;3.50;99.90;;;;;;5090589;28;20180;-81
2024/01/15 08:34:03;;;;;;;4.17;2.80;;;3.80;99.90;;;;;;5092677;28;20701;-81
2024/01/15 08:36:31;;;;;;;3.43;2.50;;;3.70;99.90;;;;;;5092464;28;20658;-82
2024/01/15 08:38:57;;;;;;;7.63;2.87;;;3.90;99.90;;;;;;5092969;28;20188;-80
2024/01/15 08:41:24;;;;;;;8.30;2.70;;;3.90;99.90;;;;;;5091463;28;20563;-82
2024/01/15 08:43:49;;;;;;;9.27;2.87;;;3.90;99.90;;;;;;5092458;28;20164;-81
2024/01/15 08:46:15;;;;;;;11.47;3.17;;;3.90;99.90;;;;;;5092656;28;20232;-81
2024/01/15 08:48:40;;;;;;;9.67;3.03;;;3.80;99.90;;;;;;5092712;28;20571;-81
2024/01/15 08:51:07;;;;;;;7.87;3.00;;;3.70;99.90;;;;;;5092364;28;20176;-80
2024/01/15 08:53:33;;;;;;;7.07;2.60;;;3.80;99.90;;;;;;5090669;28;20286;-81
2024/01/15 08:55:59;;;;;;;10.77;2.90;;;3.70;99.90;;;;;;5091188;28;20215;-81
2024/01/15 08:58:25;;;;;;;7.33;2.67;;;3.70;99.90;;;;;;5092364;28;20635;-81
2024/01/15 09:00:51;;;;;;;7.70;2.40;;;3.80;99.90;;;;;;5091880;28;20183;-82
2024/01/15 09:03:16;;;;;;;6.73;2.63;;;3.90;99.90;;;;;;5092348;28;20168;-82
2024/01/15 09:05:42;;;;;;;9.27;2.60;;;4.00;99.90;;;;;;5091239;28;20302;-82
2024/01/15 09:08:08;;;;;;;10.23;2.20;;;4.20;99.90;;;;;;5092572;28;20172;-81
2024/01/15 09:10:34;;;;;;;7.17;2.33;;;4.50;99.90;;;;;;5093427;28;20183;-82
2024/01/15 09:13:00;;;;;;;6.40;2.13;;;5.30;99.90;;;;;;5095414;28;20207;-81
2024/01/15 09:15:25;;;;;;;9.17;2.27;;;6.00;99.90;;;;;;5096239;28;20606;-80
2024/01/15 09:17:51;;;;;;;8.03;2.70;;;6.90;99.90;;;;;;5096487;28;20402;-81
2024/01/15 09:20:17;;;;;;;6.73;2.60;;;7.40;99.90;;;;;;5095974;28;20172;-81
2024/01/15 09:22:42;;;;;;;7.23;2.67;;;7.90;99.90;;;;;;5096601;28;20630;-81
2024/01/15 09:25:09;;;;;;;5.17;2.47;;;9.10;99.90;;;;;;5096304;28;20619;-80
2024/01/15 09:27:35;;;;;;;7.23;2.27;;;9.40;98.80;;;;;;5095080;28;20285;-80
2024/01/15 09:30:02;;;;;;;5.60;2.37;;;9.30;98.70;;;;;;5095607;28;20273;-80
2024/01/15 09:32:28;;;;;;;3.33;2.90;;;9.10;98.50;;;;;;5094371;28;20184;-81
2024/01/15 09:34:53;;;;;;;4.50;2.60;;;8.70;98.80;;;;;;5094177;28;20719;-82
2024/01/15 09:37:19;;;;;;;8.97;2.57;;;8.80;99.00;;;;;;5094255;28;20164;-81
2024/01/15 09:39:44;;;;;;;4.80;2.60;;;8.90;99.30;;;;;;5095463;28;20278;-80
2024/01/15 09:42:10;;;;;;;7.43;2.33;;;9.20;98.10;;;;;;5095249;28;20164;-81
2024/01/15 09:44:36;;;;;;;6.10;2.33;;;9.20;97.20;;;;;;5094957;28;20179;-80
2024/01/15 09:47:03;;;;;;;3.93;1.70;;;9.20;96.80;;;;;;5095233;28;20316;-81
2024/01/15 09:49:29;;;;;;;3.20;2.00;;;9.20;97.70;;;;;;5095431;28;20251;-80
2024/01/15 09:51:56;;;;;;;8.03;2.43;;;9.60;96.10;;;;;;5095368;28;20252;-81
2024/01/15 09:54:23;;;;;;;6.73;2.30;;;10.10;95.30;;;;;;5095343;28;20207;-81
2024/01/15 09:56:49;;;;;;;6.77;2.40;;;10.50;93.20;;;;;;5096191;28;20222;-82
2024/01/15 09:59:18;;;;;;;4.47;2.20;;;10.90;92.50;;;;;;5094138;28;20168;-82
2024/01/15 10:01:45;;;;;;;6.60;2.00;;;11.40;90.60;;;;;;5095400;28;20183;-81
2024/01/15 10:04:13;;;;;;;4.93;2.00;;;10.50;90.70;;;;;;5095637;28;20175;-79
2024/01/15 10:06:45;;;;;;;6.47;2.23;;;9.80;93.40;;;;;;5095167;28;20214;-78
2024/01/15 10:09:14;;;;;;;7.93;2.00;;;9.10;94.90;;;;;;5094877;28;20195;-78
2024/01/15 10:11:41;;;;;;;6.23;2.20;;;9.00;95.90;;;;;;5093899;28;20599;-79
2024/01/15 10:14:07;;;;;;;7.63;2.50;;;8.80;97.80;;;;;;5095014;28;20253;-78
2024/01/15 10:16:33;;;;;;;5.10;2.00;;;8.40;98.20;;;;;;5095145;28;20172;-79
2024/01/15 10:18:58;;;;;;;7.43;2.83;;;8.20;98.80;;;;;;5094575;28;20505;-82
2024/01/15 10:21:26;;;;;;;7.27;2.30;;;8.00;99.50;;;;;;5093864;28;20255;-81
2024/01/15 10:23:52;;;;;;;5.67;2.13;;;8.10;98.70;;;;;;5094729;28;20661;-82
2024/01/15 10:26:17;;;;;;;3.67;1.90;;;8.40;99.10;;;;;;5094533;28;20196;-81
2024/01/15 10:28:43;;;;;;;7.97;2.30;;;9.10;97.20;;;;;;5092721;28;20576;-83
2024/01/15 10:31:09;;;;;;;6.53;2.10;;;9.60;96.40;;;;;;5094770;28;20168;-81
2024/01/15 10:33:35;;;;;;;6.33;2.40;;;9.80;94.40;;;;;;5094003;28;20208;-81
2024/01/15 10:36:01;;;;;;;7.53;2.20;;;9.70;94.60;;;;;;5096234;28;20176;-80
2024/01/15 10:38:26;;;;;;;3.93;2.13;;;9.70;94.60;;;;;;5094636;28;20218;-81
2024/01/15 10:40:53;;;;;;;4.93;1.77;;;9.90;94.10;;;;;;5093558;28;20199;-81
2024/01/15 10:43:19;;;;;;;6.83;2.10;;;9.60;94.20;;;;;;5094003;28;20164;-81
2024/01/15 10:45:45;;;;;;;6.93;1.73;;;9.60;95.20;;;;;;5095247;28;20184;-83
2024/01/15 10:48:12;;;;;;;5.27;2.03;;;10.30;92.70;;;;;;5094558;28;20269;-83
2024/01/15 10:50:38;;;;;;;6.43;2.10;;;10.10;92.10;;;;;;5092768;28;20702;-82
2024/01/15 10:53:04;;;;;;;3.53;1.77;;;10.40;91.60;;;;;;5094427;28;20333;-82
2024/01/15 10:55:32;;;;;;;3.40;1.90;;;10.40;91.90;;;;;;5093688;28;20297;-81
2024/01/15 10:57:58;;;;;;;5.27;1.97;;;10.60;90.70;;;;;;5092279;28;20205;-80
2024/01/15 11:00:25;;;;;;;5.30;2.07;;;10.40;91.40;;;;;;5093609;28;20348;-82
2024/01/15 11:02:50;;;;;;;4.20;1.97;;;10.20;91.30;;;;;;5093712;28;20164;-80
2024/01/15 11:05:18;;;;;;;6.27;2.27;;;9.80;92.70;;;;;;5093200;28;20164;-80
2024/01/15 11:07:43;;;;;;;4.23;2.13;;;10.00;92.50;;;;;;5092364;28;20168;-81
2024/01/15 11:10:42;;;;;;;3.67;1.70;;;9.70;93.50;;;;;;5092932;28;20241;-82
2024/01/15 11:13:20;;;;;;;7.10;2.20;;;9.20;93.80;;;;;;5093576;28;20207;-80
2024/01/15 11:16:00;;;;;;;3.77;1.90;;;8.30;95.90;;;;;;5093349;28;20202;-79
2024/01/15 11:18:57;;;;;;;7.40;1.83;;;8.00;98.00;;;;;;5093800;28;20175;-79
2024/01/15 11:21:26;;;;;;;6.20;2.13;;;7.50;99.10;;;;;;5093924;28;20168;-79
2024/01/15 11:23:59;;;;;;;6.03;1.80;;;7.30;99.80;;;;;;5093218;28;20164;-80
2024/01/15 11:26:41;;;;;;;8.47;2.10;;;7.10;99.90;;;;;;5092600;28;20172;-79
2024/01/15 11:29:09;;;;;;;9.73;1.97;;;6.80;99.90;;;;;;5092916;28;20763;-80
2024/01/15 11:31:40;;;;;;;4.33;1.57;;;6.70;99.90;;;;;;5093311;28;20171;-80
2024/01/15 11:34:07;;;;;;;6.20;2.00;;;6.80;99.90;;;;;;5093143;28;20276;-81
2024/01/15 11:36:53;;;;;;;6.53;1.67;;;7.00;99.90;;;;;;5093516;28;20476;-82
2024/01/15 11:39:28;;;;;;;3.47;1.33;;;7.50;99.00;;;;;;5093177;28;20176;-82
2024/01/15 11:42:03;;;;;;;3.33;1.40;;;7.70;98.30;;;;;;5092382;28;20707;-81
2024/01/15 11:44:30;;;;;;;4.83;1.43;;;8.00;97.40;;;;;;5092437;28;20627;-79
2024/01/15 11:47:12;;;;;;;4.80;1.60;;;7.90;97.40;;;;;;5091802;28;20172;-79
2024/01/15 11:50:04;;;;;;;4.17;1.70;;;7.90;97.40;;;;;;5092009;28;20156;-80
2024/01/15 11:52:35;;;;;;;5.43;1.90;;;7.80;96.80;;;;;;5092557;28;20191;-79
2024/01/15 11:55:04;;;;;;;4.00;1.40;;;7.40;96.70;;;;;;5092500;28;20204;-79
2024/01/15 11:57:41;;;;;;;6.90;1.70;;;7.40;97.30;;;;;;5092775;28;20156;-79
2024/01/15 12:00:09;;;;;;;4.40;1.83;;;7.40;97.60;;;;;;5092978;28;20155;-80
2024/01/15 12:02:35;;;;;;;5.83;2.20;;;7.10;97.80;;;;;;5093309;28;20180;-79
2024/01/15 12:05:01;;;;;;;3.37;1.67;;;7.20;97.90;;;;;;5092861;28;20250;-79
2024/01/15 12:07:26;;;;;;;11.73;2.30;;;6.90;98.30;;;;;;5093595;28;20168;-79
2024/01/15 12:09:52;;;;;;;8.40;2.07;;;6.60;99.40;;;;;;5093262;28;20183;-79
2024/01/15 12:12:44;;;;;;;3.40;1.50;;;6.30;99.30;;;;;;5091402;28;20218;-79
2024/01/15 12:15:09;;;;;;;9.30;1.70;;;6.20;99.90;;;;;;5092852;28;20184;-80
2024/01/15 12:17:36;;;;;;;5.77;2.03;;;6.50;99.90;;;;;;5091574;28;20190;-81
2024/01/15 12:20:03;;;;;;;2.50;1.43;;;6.50;99.60;;;;;;5092159;28;20271;-81
2024/01/15 12:22:29;;;;;;;6.20;1.40;;;6.40;99.90;;;;;;5090726;28;20186;-79
2024/01/15 12:24:54;;;;;;;4.53;2.10;;;6.40;99.90;;;;;;5091288;28;20168;-82
2024/01/15 12:27:21;;;;;;;5.90;1.80;;;6.50;99.90;;;;;;5092150;28;20168;-81
2024/01/15 12:29:46;;;;;;;6.10;1.83;;;6.40;99.90;;;;;;5092916;28;20298;-80
2024/01/15 12:32:12;;;;;;;6.20;2.20;;;6.30;99.90;;;;;;5092498;28;20250;-81
2024/01/15 12:34:38;;;;;;;4.67;1.90;;;6.30;99.90;;;;;;5092293;28;20207;-81
2024/01/15 12:37:04;;;;;;;5.40;1.80;;;6.30;99.90;;;;;;5092082;28;20643;-80
2024/01/15 12:39:29;;;;;;;2.40;1.60;;;6.00;99.90;;;;;;5092288;28;20215;-80
2024/01/15 12:41:55;;;;;;;4.00;1.40;;;5.80;99.90;;;;;;5092401;28;20168;-79
2024/01/15 12:44:21;;;;;;;3.83;1.50;;;5.60;99.90;;;;;;5091578;28;20254;-80
2024/01/15 12:46:47;;;;;;;7.30;1.80;;;5.50;99.90;;;;;;5094827;28;20189;-80